createdAt,value
2023-05-19T00:00:51.525Z,0
2023-05-19T00:02:07.683Z,0
2023-05-19T00:03:23.809Z,0
2023-05-19T00:04:39.955Z,0
2023-05-19T00:05:56.074Z,0
2023-05-19T00:07:12.209Z,0
2023-05-19T00:08:28.357Z,0
2023-05-19T00:09:44.498Z,0
2023-05-19T00:11:00.625Z,0
2023-05-19T00:12:16.751Z,0
2023-05-19T00:13:32.899Z,0
2023-05-19T00:14:49.036Z,0
2023-05-19T00:16:05.182Z,0
2023-05-19T00:17:21.308Z,0
2023-05-19T00:18:37.489Z,0
2023-05-19T00:19:52.699Z,0
2023-05-19T00:21:08.835Z,0
2023-05-19T00:22:24.967Z,0
2023-05-19T00:23:41.100Z,0
2023-05-19T00:24:57.235Z,0
2023-05-19T00:26:13.381Z,0
2023-05-19T00:27:29.523Z,0
2023-05-19T00:28:45.656Z,0
2023-05-19T00:30:01.781Z,0
2023-05-19T00:31:17.923Z,0
2023-05-19T00:32:34.065Z,0
2023-05-19T00:33:50.189Z,0
2023-05-19T00:35:06.330Z,0
2023-05-19T00:36:22.463Z,0
2023-05-19T00:37:38.594Z,0
2023-05-19T00:38:54.739Z,0
2023-05-19T00:40:10.888Z,0
2023-05-19T00:41:27.018Z,0
2023-05-19T00:42:43.142Z,0
2023-05-19T00:43:59.269Z,0
2023-05-19T00:45:15.425Z,0
2023-05-19T00:46:31.567Z,0
2023-05-19T00:47:47.688Z,0
2023-05-19T00:49:03.823Z,0
2023-05-19T00:50:19.957Z,0
2023-05-19T00:51:36.172Z,0
2023-05-19T00:52:51.382Z,0
2023-05-19T00:54:06.533Z,0
2023-05-19T00:55:22.677Z,0
2023-05-19T00:56:38.810Z,0
2023-05-19T00:57:54.934Z,0
2023-05-19T00:59:11.064Z,0
2023-05-19T01:00:27.205Z,0
2023-05-19T01:01:43.352Z,0
2023-05-19T01:02:59.488Z,0
2023-05-19T01:04:15.629Z,0
2023-05-19T01:05:31.749Z,0
2023-05-19T01:06:47.881Z,0
2023-05-19T01:08:04.025Z,0
2023-05-19T01:09:20.164Z,0
2023-05-19T01:10:36.304Z,0
2023-05-19T01:11:52.434Z,0
2023-05-19T01:13:08.566Z,0
2023-05-19T01:14:24.714Z,0
2023-05-19T01:15:40.856Z,0
2023-05-19T01:16:56.977Z,0
2023-05-19T01:18:13.117Z,0
2023-05-19T01:19:29.253Z,0
2023-05-19T01:20:45.396Z,0
2023-05-19T01:22:01.523Z,0
2023-05-19T01:23:17.652Z,0
2023-05-19T01:24:33.800Z,0
2023-05-19T01:25:49.926Z,0
2023-05-19T01:27:06.068Z,0
2023-05-19T01:28:22.211Z,0
2023-05-19T01:29:38.347Z,0
2023-05-19T01:30:54.467Z,0
2023-05-19T01:32:10.609Z,0
2023-05-19T01:33:26.745Z,0
2023-05-19T01:34:42.887Z,0
2023-05-19T01:35:59.021Z,0
2023-05-19T01:37:15.148Z,0
2023-05-19T01:38:31.282Z,0
2023-05-19T01:39:47.424Z,0
2023-05-19T01:41:03.714Z,0
2023-05-19T01:42:19.838Z,0
2023-05-19T01:43:35.974Z,0
2023-05-19T01:44:52.112Z,0
2023-05-19T01:46:08.263Z,0
2023-05-19T01:47:24.393Z,0
2023-05-19T01:48:40.529Z,0
2023-05-19T01:49:56.656Z,0
2023-05-19T01:51:12.802Z,0
2023-05-19T01:52:28.950Z,0
2023-05-19T01:53:45.079Z,0
2023-05-19T01:55:01.214Z,0
2023-05-19T01:56:17.345Z,0
2023-05-19T01:57:33.472Z,0
2023-05-19T01:58:49.617Z,0
2023-05-19T02:00:05.751Z,0
2023-05-19T02:01:21.895Z,0
2023-05-19T02:02:38.020Z,0
2023-05-19T02:03:54.144Z,0
2023-05-19T02:05:10.306Z,0
2023-05-19T02:06:26.438Z,0
2023-05-19T02:07:42.574Z,0
2023-05-19T02:08:58.701Z,0
2023-05-19T02:10:14.832Z,0
2023-05-19T02:11:30.973Z,0
2023-05-19T02:12:47.171Z,0
2023-05-19T02:14:02.385Z,0
2023-05-19T02:15:17.523Z,0
2023-05-19T02:16:33.666Z,0
2023-05-19T02:17:49.801Z,0
2023-05-19T02:19:05.938Z,0
2023-05-19T02:20:22.057Z,0
2023-05-19T02:21:38.201Z,0
2023-05-19T02:22:54.337Z,0
2023-05-19T02:24:10.477Z,0
2023-05-19T02:25:26.611Z,0
2023-05-19T02:26:42.733Z,0
2023-05-19T02:27:58.899Z,0
2023-05-19T02:29:15.033Z,0
2023-05-19T02:30:31.163Z,0
2023-05-19T02:31:47.286Z,0
2023-05-19T02:33:03.432Z,0
2023-05-19T02:34:19.560Z,0
2023-05-19T02:35:35.702Z,0
2023-05-19T02:36:51.840Z,0
2023-05-19T02:38:07.971Z,0
2023-05-19T02:39:24.095Z,0
2023-05-19T02:40:40.248Z,0
2023-05-19T02:41:56.392Z,0
2023-05-19T02:43:12.517Z,0
2023-05-19T02:44:28.648Z,0
2023-05-19T02:45:44.787Z,0
2023-05-19T02:47:00.935Z,0
2023-05-19T02:48:17.061Z,0
2023-05-19T02:49:33.197Z,0
2023-05-19T02:50:49.326Z,0
2023-05-19T02:52:05.462Z,0
2023-05-19T02:53:21.601Z,0
2023-05-19T02:54:37.738Z,0
2023-05-19T02:55:53.866Z,0
2023-05-19T02:57:10.001Z,0
2023-05-19T02:58:26.148Z,0
2023-05-19T02:59:42.296Z,0
2023-05-19T03:00:58.428Z,0
2023-05-19T03:02:14.617Z,0
2023-05-19T03:03:29.850Z,0
2023-05-19T03:04:45.068Z,0
2023-05-19T03:06:01.193Z,0
2023-05-19T03:07:17.326Z,0
2023-05-19T03:08:33.464Z,0
2023-05-19T03:09:49.603Z,0
2023-05-19T03:11:05.860Z,0
2023-05-19T03:12:21.995Z,0
2023-05-19T03:13:38.136Z,0
2023-05-19T03:14:54.264Z,0
2023-05-19T03:16:10.403Z,0
2023-05-19T03:17:26.548Z,0
2023-05-19T03:18:42.681Z,0
2023-05-19T03:19:58.798Z,0
2023-05-19T03:21:14.933Z,0
2023-05-19T03:22:31.085Z,0
2023-05-19T03:23:47.218Z,0
2023-05-19T03:25:03.343Z,0
2023-05-19T03:26:19.477Z,0
2023-05-19T03:27:35.627Z,0
2023-05-19T03:28:51.762Z,0
2023-05-19T03:30:07.910Z,0
2023-05-19T03:31:24.029Z,0
2023-05-19T03:32:40.162Z,0
2023-05-19T03:33:56.308Z,0
2023-05-19T03:35:12.451Z,0
2023-05-19T03:36:28.571Z,0
2023-05-19T03:37:44.705Z,0
2023-05-19T03:39:00.843Z,5
2023-05-19T03:40:16.984Z,5
2023-05-19T03:41:33.119Z,5
2023-05-19T03:42:49.000Z,5
2023-05-19T03:44:05.383Z,5
2023-05-19T03:45:21.524Z,5
2023-05-19T03:46:37.667Z,5
2023-05-19T03:47:53.806Z,5
2023-05-19T03:49:09.948Z,5
2023-05-19T03:50:26.080Z,5
2023-05-19T03:51:42.206Z,5
2023-05-19T03:52:58.348Z,5
2023-05-19T03:54:14.489Z,5
2023-05-19T03:55:30.610Z,5
2023-05-19T03:56:46.749Z,11
2023-05-19T03:58:02.954Z,11
2023-05-19T03:59:18.160Z,11
2023-05-19T04:00:34.281Z,11
2023-05-19T04:01:50.425Z,11
2023-05-19T04:03:06.559Z,11
2023-05-19T04:04:22.680Z,11
2023-05-19T04:05:38.824Z,11
2023-05-19T04:06:54.956Z,11
2023-05-19T04:08:11.096Z,16
2023-05-19T04:09:27.235Z,16
2023-05-19T04:10:43.360Z,16
2023-05-19T04:11:59.516Z,16
2023-05-19T04:13:15.644Z,16
2023-05-19T04:14:31.772Z,16
2023-05-19T04:15:47.907Z,16
2023-05-19T04:17:04.043Z,22
2023-05-19T04:18:20.191Z,22
2023-05-19T04:19:36.318Z,22
2023-05-19T04:20:52.458Z,28
2023-05-19T04:22:08.591Z,28
2023-05-19T04:23:24.731Z,33
2023-05-19T04:24:40.862Z,33
2023-05-19T04:25:57.000Z,33
2023-05-19T04:27:13.146Z,39
2023-05-19T04:28:29.260Z,39
2023-05-19T04:29:45.406Z,39
2023-05-19T04:31:01.612Z,39
2023-05-19T04:32:16.823Z,45
2023-05-19T04:33:31.971Z,45
2023-05-19T04:34:48.115Z,45
2023-05-19T04:36:04.255Z,45
2023-05-19T04:37:20.378Z,45
2023-05-19T04:38:36.516Z,45
2023-05-19T04:39:52.647Z,50
2023-05-19T04:41:08.792Z,50
2023-05-19T04:42:24.925Z,56
2023-05-19T04:43:41.067Z,56
2023-05-19T04:44:57.190Z,56
2023-05-19T04:46:13.316Z,61
2023-05-19T04:47:29.471Z,61
2023-05-19T04:48:45.599Z,67
2023-05-19T04:50:01.745Z,67
2023-05-19T04:51:17.874Z,73
2023-05-19T04:52:34.003Z,78
2023-05-19T04:53:50.158Z,78
2023-05-19T04:55:06.286Z,84
2023-05-19T04:56:22.410Z,84
2023-05-19T04:57:38.549Z,90
2023-05-19T04:58:54.680Z,90
2023-05-19T05:00:10.826Z,95
2023-05-19T05:01:26.969Z,95
2023-05-19T05:02:43.091Z,101
2023-05-19T05:03:59.241Z,101
2023-05-19T05:05:15.372Z,101
2023-05-19T05:06:31.513Z,106
2023-05-19T05:07:47.653Z,106
2023-05-19T05:09:03.785Z,112
2023-05-19T05:10:19.916Z,112
2023-05-19T05:11:36.051Z,118
2023-05-19T05:12:52.199Z,118
2023-05-19T05:14:08.335Z,118
2023-05-19T05:15:24.456Z,123
2023-05-19T05:16:40.581Z,123
2023-05-19T05:17:56.718Z,123
2023-05-19T05:19:12.876Z,123
2023-05-19T05:20:29.054Z,118
2023-05-19T05:21:44.270Z,118
2023-05-19T05:22:59.415Z,112
2023-05-19T05:24:15.551Z,112
2023-05-19T05:25:31.697Z,106
2023-05-19T05:26:47.833Z,101
2023-05-19T05:28:03.966Z,95
2023-05-19T05:29:20.104Z,90
2023-05-19T05:30:36.242Z,90
2023-05-19T05:31:52.370Z,84
2023-05-19T05:33:08.501Z,84
2023-05-19T05:34:24.633Z,84
2023-05-19T05:35:40.778Z,84
2023-05-19T05:36:56.925Z,84
2023-05-19T05:38:13.050Z,84
2023-05-19T05:39:29.185Z,90
2023-05-19T05:40:45.314Z,90
2023-05-19T05:42:01.469Z,95
2023-05-19T05:43:17.591Z,95
2023-05-19T05:44:33.725Z,101
2023-05-19T05:45:49.856Z,101
2023-05-19T05:47:05.992Z,106
2023-05-19T05:48:22.153Z,106
2023-05-19T05:49:38.275Z,112
2023-05-19T05:50:54.404Z,112
2023-05-19T05:52:10.535Z,118
2023-05-19T05:53:26.680Z,118
2023-05-19T05:54:42.829Z,118
2023-05-19T05:55:58.958Z,123
2023-05-19T05:57:15.085Z,123
2023-05-19T05:58:31.223Z,123
2023-05-19T05:59:47.355Z,129
2023-05-19T06:01:03.512Z,129
2023-05-19T06:02:19.634Z,129
2023-05-19T06:03:35.781Z,129
2023-05-19T06:04:51.900Z,129
2023-05-19T06:06:08.037Z,135
2023-05-19T06:07:24.187Z,135
2023-05-19T06:08:40.314Z,135
2023-05-19T06:09:56.506Z,135
2023-05-19T06:11:11.749Z,140
2023-05-19T06:12:26.963Z,140
2023-05-19T06:13:43.087Z,140
2023-05-19T06:14:59.218Z,140
2023-05-19T06:16:15.359Z,146
2023-05-19T06:17:31.492Z,146
2023-05-19T06:18:47.635Z,146
2023-05-19T06:20:03.777Z,146
2023-05-19T06:21:19.892Z,140
2023-05-19T06:22:36.043Z,151
2023-05-19T06:23:52.189Z,146
2023-05-19T06:25:08.309Z,151
2023-05-19T06:26:24.440Z,151
2023-05-19T06:27:40.575Z,151
2023-05-19T06:28:56.718Z,140
2023-05-19T06:30:12.871Z,146
2023-05-19T06:31:28.987Z,146
2023-05-19T06:32:45.139Z,146
2023-05-19T06:34:01.259Z,157
2023-05-19T06:35:17.403Z,157
2023-05-19T06:36:33.539Z,151
2023-05-19T06:37:49.675Z,157
2023-05-19T06:39:05.815Z,163
2023-05-19T06:40:21.937Z,180
2023-05-19T06:41:38.078Z,185
2023-05-19T06:42:54.225Z,202
2023-05-19T06:44:10.412Z,236
2023-05-19T06:45:25.658Z,241
2023-05-19T06:46:41.852Z,225
2023-05-19T06:47:58.040Z,230
2023-05-19T06:49:13.236Z,236
2023-05-19T06:50:28.389Z,236
2023-05-19T06:51:44.541Z,241
2023-05-19T06:53:00.685Z,241
2023-05-19T06:54:16.818Z,241
2023-05-19T06:55:32.950Z,241
2023-05-19T06:56:49.074Z,236
2023-05-19T06:58:05.221Z,230
2023-05-19T06:59:21.348Z,202
2023-05-19T07:00:37.483Z,196
2023-05-19T07:01:53.632Z,202
2023-05-19T07:03:09.753Z,213
2023-05-19T07:04:25.901Z,213
2023-05-19T07:05:42.042Z,219
2023-05-19T07:06:58.172Z,219
2023-05-19T07:08:14.308Z,230
2023-05-19T07:09:30.446Z,236
2023-05-19T07:10:46.000Z,258
2023-05-19T07:12:02.714Z,472
2023-05-19T07:13:18.849Z,1068
2023-05-19T07:14:34.991Z,1271
2023-05-19T07:15:51.116Z,720
2023-05-19T07:17:07.273Z,556
2023-05-19T07:18:23.389Z,736
2023-05-19T07:19:39.534Z,995
2023-05-19T07:20:55.670Z,495
2023-05-19T07:22:11.802Z,472
2023-05-19T07:23:27.954Z,832
2023-05-19T07:24:44.073Z,573
2023-05-19T07:26:00.218Z,444
2023-05-19T07:27:16.347Z,590
2023-05-19T07:28:32.479Z,382
2023-05-19T07:29:48.632Z,1653
2023-05-19T07:31:04.757Z,843
2023-05-19T07:32:20.893Z,472
2023-05-19T07:33:37.033Z,1681
2023-05-19T07:34:53.166Z,1597
2023-05-19T07:36:09.306Z,1766
2023-05-19T07:37:25.502Z,1518
2023-05-19T07:38:40.698Z,1580
2023-05-19T07:39:56.848Z,1186
2023-05-19T07:41:12.983Z,585
2023-05-19T07:42:29.130Z,1653
2023-05-19T07:43:45.247Z,1400
2023-05-19T07:45:01.380Z,1653
2023-05-19T07:46:17.513Z,1710
2023-05-19T07:47:33.667Z,1771
2023-05-19T07:48:49.812Z,1693
2023-05-19T07:50:05.946Z,1248
2023-05-19T07:51:22.078Z,506
2023-05-19T07:52:38.213Z,838
2023-05-19T07:53:54.360Z,1147
2023-05-19T07:55:10.494Z,720
2023-05-19T07:56:26.622Z,573
2023-05-19T07:57:42.747Z,1181
2023-05-19T07:58:58.895Z,1732
2023-05-19T08:00:15.031Z,551
2023-05-19T08:01:31.171Z,450
2023-05-19T08:02:47.301Z,607
2023-05-19T08:04:03.442Z,1541
2023-05-19T08:05:19.570Z,2025
2023-05-19T08:06:35.727Z,1856
2023-05-19T08:07:51.856Z,2058
2023-05-19T08:09:07.978Z,1923
2023-05-19T08:10:24.000Z,793
2023-05-19T08:11:39.411Z,489
2023-05-19T08:12:54.615Z,1715
2023-05-19T08:14:09.767Z,1248
2023-05-19T08:15:25.931Z,1951
2023-05-19T08:16:42.063Z,1760
2023-05-19T08:17:58.189Z,1783
2023-05-19T08:19:14.322Z,1867
2023-05-19T08:20:30.454Z,1670
2023-05-19T08:21:46.606Z,1350
2023-05-19T08:23:02.741Z,1546
2023-05-19T08:24:18.865Z,1873
2023-05-19T08:25:35.011Z,1867
2023-05-19T08:26:51.141Z,1524
2023-05-19T08:28:07.283Z,2081
2023-05-19T08:29:23.429Z,1963
2023-05-19T08:30:39.558Z,2030
2023-05-19T08:31:55.690Z,1951
2023-05-19T08:33:11.822Z,2086
2023-05-19T08:34:27.978Z,2131
2023-05-19T08:35:44.101Z,2131
2023-05-19T08:37:00.237Z,2193
2023-05-19T08:38:16.369Z,2160
2023-05-19T08:39:32.515Z,2244
2023-05-19T08:40:48.662Z,2205
2023-05-19T08:42:04.795Z,2373
2023-05-19T08:43:20.934Z,2340
2023-05-19T08:44:37.054Z,2407
2023-05-19T08:45:53.202Z,2458
2023-05-19T08:47:09.343Z,2486
2023-05-19T08:48:25.475Z,2430
2023-05-19T08:49:41.612Z,2441
2023-05-19T08:50:57.741Z,2593
2023-05-19T08:52:13.877Z,2598
2023-05-19T08:53:30.023Z,2373
2023-05-19T08:54:46.159Z,2323
2023-05-19T08:56:02.302Z,2452
2023-05-19T08:57:18.424Z,2497
2023-05-19T08:58:34.570Z,2401
2023-05-19T08:59:50.717Z,2469
2023-05-19T09:01:06.904Z,2475
2023-05-19T09:02:22.139Z,646
2023-05-19T09:03:37.363Z,405
2023-05-19T09:04:53.481Z,2345
2023-05-19T09:06:09.629Z,2227
2023-05-19T09:07:25.761Z,1546
2023-05-19T09:08:41.900Z,2345
2023-05-19T09:09:58.049Z,2193
2023-05-19T09:12:30.304Z,2458
2023-05-19T09:13:46.441Z,2621
2023-05-19T09:15:02.572Z,2469
2023-05-19T09:16:18.724Z,2413
2023-05-19T09:17:34.872Z,253
2023-05-19T09:18:50.992Z,258
2023-05-19T09:20:07.137Z,2401
2023-05-19T09:21:23.262Z,517
2023-05-19T09:22:39.417Z,337
2023-05-19T09:23:55.551Z,315
2023-05-19T09:25:11.685Z,2469
2023-05-19T09:26:27.814Z,2542
2023-05-19T09:27:43.961Z,1800
2023-05-19T09:29:00.113Z,2666
2023-05-19T09:30:16.251Z,2700
2023-05-19T09:31:32.371Z,2542
2023-05-19T09:32:48.509Z,2508
2023-05-19T09:34:04.645Z,2638
2023-05-19T09:35:20.851Z,669
2023-05-19T09:36:36.108Z,500
2023-05-19T09:37:51.324Z,2655
2023-05-19T09:39:07.471Z,337
2023-05-19T09:40:23.597Z,388
2023-05-19T09:41:39.726Z,1681
2023-05-19T09:42:55.859Z,3211
2023-05-19T09:44:11.998Z,3712
2023-05-19T09:45:28.162Z,416
2023-05-19T09:46:44.281Z,241
2023-05-19T09:48:00.429Z,253
2023-05-19T09:49:16.563Z,1485
2023-05-19T09:50:32.688Z,922
2023-05-19T09:51:48.838Z,658
2023-05-19T09:53:04.968Z,748
2023-05-19T09:54:21.103Z,810
2023-05-19T09:55:37.247Z,804
2023-05-19T09:56:53.386Z,810
2023-05-19T09:58:09.536Z,810
2023-05-19T09:59:25.670Z,821
2023-05-19T10:00:41.803Z,900
2023-05-19T10:01:57.934Z,562
2023-05-19T10:03:14.065Z,922
2023-05-19T10:04:30.224Z,843
2023-05-19T10:05:46.345Z,877
2023-05-19T10:07:02.478Z,855
2023-05-19T10:08:18.630Z,843
2023-05-19T10:09:34.807Z,855
2023-05-19T10:10:50.048Z,883
2023-05-19T10:12:06.250Z,748
2023-05-19T10:13:21.451Z,866
2023-05-19T10:14:37.603Z,826
2023-05-19T10:15:53.739Z,849
2023-05-19T10:17:09.873Z,798
2023-05-19T10:18:26.008Z,793
2023-05-19T10:19:42.143Z,832
2023-05-19T10:20:58.280Z,877
2023-05-19T10:22:14.421Z,821
2023-05-19T10:23:30.560Z,888
2023-05-19T10:24:46.685Z,860
2023-05-19T10:26:02.838Z,905
2023-05-19T10:27:18.975Z,916
2023-05-19T10:28:35.109Z,922
2023-05-19T10:29:51.255Z,838
2023-05-19T10:31:07.388Z,472
2023-05-19T10:32:23.522Z,264
2023-05-19T10:33:39.658Z,225
2023-05-19T10:34:55.803Z,230
2023-05-19T10:36:11.934Z,337
2023-05-19T10:37:28.067Z,1108
2023-05-19T10:38:44.204Z,1091
2023-05-19T10:40:00.362Z,326
2023-05-19T10:41:16.483Z,258
2023-05-19T10:42:32.622Z,303
2023-05-19T10:43:48.762Z,950
2023-05-19T10:45:04.957Z,1158
2023-05-19T10:46:20.191Z,309
2023-05-19T10:47:35.401Z,309
2023-05-19T10:48:51.543Z,264
2023-05-19T10:50:07.691Z,253
2023-05-19T10:51:23.825Z,270
2023-05-19T10:52:39.960Z,270
2023-05-19T10:53:56.085Z,241
2023-05-19T10:55:12.229Z,208
2023-05-19T10:56:28.377Z,213
2023-05-19T10:57:44.509Z,309
2023-05-19T10:59:00.629Z,315
2023-05-19T11:00:16.764Z,303
2023-05-19T11:01:32.903Z,703
2023-05-19T11:02:49.052Z,843
2023-05-19T11:04:05.198Z,1001
2023-05-19T11:05:21.316Z,1029
2023-05-19T11:06:37.450Z,826
2023-05-19T11:07:53.598Z,450
2023-05-19T11:09:09.749Z,241
2023-05-19T11:10:25.872Z,365
2023-05-19T11:11:42.004Z,320
2023-05-19T11:12:58.140Z,1153
2023-05-19T11:14:14.280Z,1220
2023-05-19T11:15:30.423Z,1226
2023-05-19T11:16:46.554Z,1186
2023-05-19T11:18:02.690Z,1186
2023-05-19T11:19:18.883Z,286
2023-05-19T11:20:34.116Z,225
2023-05-19T11:21:49.322Z,658
2023-05-19T11:23:04.493Z,613
2023-05-19T11:24:20.631Z,888
2023-05-19T11:25:36.757Z,376
2023-05-19T11:26:52.891Z,241
2023-05-19T11:28:09.023Z,185
2023-05-19T11:29:25.161Z,163
2023-05-19T11:30:41.318Z,180
2023-05-19T11:31:57.443Z,241
2023-05-19T11:33:13.584Z,253
2023-05-19T11:34:29.709Z,241
2023-05-19T11:35:45.853Z,253
2023-05-19T11:37:02.007Z,230
2023-05-19T11:38:18.130Z,225
2023-05-19T11:39:34.268Z,225
2023-05-19T11:40:50.405Z,236
2023-05-19T11:42:06.528Z,281
2023-05-19T11:43:22.686Z,298
2023-05-19T11:44:38.816Z,315
2023-05-19T11:45:54.944Z,281
2023-05-19T11:47:11.077Z,286
2023-05-19T11:48:27.209Z,236
2023-05-19T11:49:43.359Z,202
2023-05-19T11:50:59.508Z,185
2023-05-19T11:52:15.640Z,123
2023-05-19T11:53:31.772Z,135
2023-05-19T11:54:47.901Z,146
2023-05-19T11:56:04.054Z,146
2023-05-19T11:57:20.180Z,151
2023-05-19T11:58:36.315Z,174
2023-05-19T11:59:52.445Z,196
2023-05-19T12:01:08.593Z,219
2023-05-19T12:02:24.727Z,213
2023-05-19T12:03:40.866Z,185
2023-05-19T12:04:56.992Z,157
2023-05-19T12:06:13.125Z,140
2023-05-19T12:07:29.262Z,129
2023-05-19T12:08:45.416Z,118
2023-05-19T12:10:01.603Z,106
2023-05-19T12:11:16.853Z,112
2023-05-19T12:12:32.057Z,118
2023-05-19T12:13:48.187Z,135
2023-05-19T12:15:04.324Z,151
2023-05-19T12:16:20.448Z,163
2023-05-19T12:17:36.597Z,163
2023-05-19T12:18:52.736Z,163
2023-05-19T12:20:08.865Z,151
2023-05-19T12:21:24.993Z,135
2023-05-19T12:22:41.144Z,140
2023-05-19T12:23:57.273Z,151
2023-05-19T12:25:13.411Z,163
2023-05-19T12:26:29.555Z,191
2023-05-19T12:27:45.677Z,202
2023-05-19T12:29:01.825Z,185
2023-05-19T12:30:17.956Z,213
2023-05-19T12:31:34.091Z,196
2023-05-19T12:32:50.240Z,202
2023-05-19T12:34:06.375Z,213
2023-05-19T12:35:22.493Z,225
2023-05-19T12:36:38.633Z,202
2023-05-19T12:37:54.772Z,191
2023-05-19T12:39:10.919Z,185
2023-05-19T12:40:27.050Z,168
2023-05-19T12:41:43.177Z,157
2023-05-19T12:42:59.309Z,140
2023-05-19T12:44:15.000Z,135
2023-05-19T12:45:30.752Z,151
2023-05-19T12:46:46.947Z,163
2023-05-19T12:48:02.000Z,196
2023-05-19T12:49:18.294Z,213
2023-05-19T12:50:34.435Z,219
2023-05-19T12:51:50.560Z,202
2023-05-19T12:53:06.697Z,196
2023-05-19T12:54:22.846Z,185
2023-05-19T12:55:38.970Z,185
2023-05-19T12:56:55.109Z,191
2023-05-19T12:58:11.232Z,185
2023-05-19T12:59:27.365Z,163
2023-05-19T13:00:43.527Z,146
2023-05-19T13:01:59.654Z,151
2023-05-19T13:03:15.785Z,168
2023-05-19T13:04:31.929Z,174
2023-05-19T13:05:48.048Z,151
2023-05-19T13:07:04.192Z,146
2023-05-19T13:08:20.340Z,157
2023-05-19T13:09:36.461Z,163
2023-05-19T13:10:52.608Z,180
2023-05-19T13:12:08.729Z,191
2023-05-19T13:13:24.875Z,196
2023-05-19T13:14:41.010Z,202
2023-05-19T13:15:57.144Z,191
2023-05-19T13:17:13.275Z,191
2023-05-19T13:18:29.406Z,185
2023-05-19T13:19:45.609Z,185
2023-05-19T13:21:00.864Z,174
2023-05-19T13:22:16.054Z,174
2023-05-19T13:23:32.207Z,168
2023-05-19T13:24:48.346Z,157
2023-05-19T13:26:04.471Z,140
2023-05-19T13:27:20.618Z,118
2023-05-19T13:28:36.737Z,95
2023-05-19T13:29:52.883Z,78
2023-05-19T13:31:09.024Z,73
2023-05-19T13:32:25.156Z,67
2023-05-19T13:33:41.288Z,73
2023-05-19T13:36:13.582Z,101
2023-05-19T13:37:29.701Z,118
2023-05-19T13:38:45.832Z,129
2023-05-19T13:40:01.984Z,146
2023-05-19T13:41:18.117Z,163
2023-05-19T13:42:34.259Z,180
2023-05-19T13:43:50.390Z,196
2023-05-19T13:45:06.532Z,196
2023-05-19T13:46:22.647Z,185
2023-05-19T13:47:38.781Z,174
2023-05-19T13:48:54.931Z,174
2023-05-19T13:50:11.068Z,180
2023-05-19T13:51:27.208Z,180
2023-05-19T13:52:43.336Z,174
2023-05-19T13:53:59.531Z,163
2023-05-19T13:55:14.794Z,146
2023-05-19T13:56:30.004Z,123
2023-05-19T13:57:46.125Z,101
2023-05-19T13:59:02.272Z,84
2023-05-19T14:00:18.416Z,73
2023-05-19T14:01:34.540Z,73
2023-05-19T14:02:50.684Z,73
2023-05-19T14:04:06.805Z,78
2023-05-19T14:05:22.953Z,90
2023-05-19T14:06:39.101Z,95
2023-05-19T14:07:55.235Z,106
2023-05-19T14:09:11.360Z,118
2023-05-19T14:10:27.505Z,129
2023-05-19T14:11:43.633Z,146
2023-05-19T14:12:59.785Z,163
2023-05-19T14:14:15.907Z,168
2023-05-19T14:15:32.040Z,168
2023-05-19T14:16:48.175Z,163
2023-05-19T14:18:04.328Z,157
2023-05-19T14:19:20.463Z,151
2023-05-19T14:20:36.601Z,151
2023-05-19T14:21:52.716Z,151
2023-05-19T14:23:08.863Z,157
2023-05-19T14:24:25.013Z,151
2023-05-19T14:25:41.139Z,146
2023-05-19T14:26:57.283Z,135
2023-05-19T14:28:13.471Z,112
2023-05-19T14:29:28.712Z,106
2023-05-19T14:30:44.891Z,101
2023-05-19T14:32:00.111Z,95
2023-05-19T14:33:16.241Z,95
2023-05-19T14:34:32.378Z,106
2023-05-19T14:35:48.514Z,118
2023-05-19T14:37:04.649Z,129
2023-05-19T14:38:20.782Z,135
2023-05-19T14:39:36.912Z,135
2023-05-19T14:40:53.072Z,129
2023-05-19T14:42:09.200Z,129
2023-05-19T14:43:25.342Z,129
2023-05-19T14:44:41.464Z,129
2023-05-19T14:45:57.603Z,129
2023-05-19T14:47:13.755Z,123
2023-05-19T14:48:29.885Z,123
2023-05-19T14:49:46.010Z,123
2023-05-19T14:51:02.141Z,123
2023-05-19T14:52:18.280Z,118
2023-05-19T14:53:34.420Z,112
2023-05-19T14:54:50.557Z,106
2023-05-19T14:56:06.689Z,101
2023-05-19T14:57:22.830Z,106
2023-05-19T14:58:38.957Z,118
2023-05-19T14:59:55.114Z,123
2023-05-19T15:01:11.246Z,129
2023-05-19T15:02:27.378Z,123
2023-05-19T15:03:43.577Z,123
2023-05-19T15:04:58.805Z,118
2023-05-19T15:06:14.021Z,118
2023-05-19T15:07:29.168Z,118
2023-05-19T15:08:45.320Z,123
2023-05-19T15:10:01.449Z,123
2023-05-19T15:11:17.586Z,123
2023-05-19T15:12:33.719Z,123
2023-05-19T15:13:49.841Z,129
2023-05-19T15:15:05.986Z,129
2023-05-19T15:16:22.117Z,129
2023-05-19T15:17:38.258Z,129
2023-05-19T15:18:54.397Z,123
2023-05-19T15:20:10.536Z,129
2023-05-19T15:21:26.676Z,129
2023-05-19T15:22:42.799Z,129
2023-05-19T15:23:58.943Z,123
2023-05-19T15:25:15.067Z,123
2023-05-19T15:26:31.204Z,118
2023-05-19T15:27:47.353Z,118
2023-05-19T15:30:19.617Z,118
2023-05-19T15:31:35.763Z,112
2023-05-19T15:32:51.886Z,112
2023-05-19T15:34:08.034Z,112
2023-05-19T15:35:24.169Z,106
2023-05-19T15:36:40.304Z,106
2023-05-19T15:37:56.429Z,106
2023-05-19T15:39:12.573Z,101
2023-05-19T15:40:28.724Z,101
2023-05-19T15:41:44.844Z,95
2023-05-19T15:43:00.977Z,95
2023-05-19T15:44:17.125Z,95
2023-05-19T15:45:33.245Z,95
2023-05-19T15:46:49.400Z,90
2023-05-19T15:48:05.539Z,90
2023-05-19T15:49:21.671Z,90
2023-05-19T15:50:37.793Z,84
2023-05-19T15:51:53.924Z,84
2023-05-19T15:53:10.074Z,84
2023-05-19T15:54:26.267Z,78
2023-05-19T15:55:41.506Z,78
2023-05-19T15:56:56.722Z,78
2023-05-19T15:58:12.854Z,78
2023-05-19T15:59:28.992Z,73
2023-05-19T16:00:45.113Z,73
2023-05-19T16:02:01.244Z,67
2023-05-19T16:03:17.399Z,67
2023-05-19T16:04:33.524Z,61
2023-05-19T16:05:49.653Z,61
2023-05-19T16:07:05.792Z,56
2023-05-19T16:08:21.929Z,56
2023-05-19T16:09:38.083Z,56
2023-05-19T16:10:54.201Z,56
2023-05-19T16:12:10.341Z,56
2023-05-19T16:13:26.467Z,50
2023-05-19T16:14:42.618Z,50
2023-05-19T16:15:58.761Z,50
2023-05-19T16:17:14.883Z,50
2023-05-19T16:18:31.024Z,50
2023-05-19T16:19:47.159Z,50
2023-05-19T16:21:03.292Z,50
2023-05-19T16:22:19.447Z,50
2023-05-19T16:23:35.577Z,56
2023-05-19T16:24:51.711Z,56
2023-05-19T16:26:07.843Z,50
2023-05-19T16:27:23.971Z,50
2023-05-19T16:28:40.189Z,50
2023-05-19T16:29:55.416Z,50
2023-05-19T16:31:10.618Z,50
2023-05-19T16:32:26.775Z,50
2023-05-19T16:33:42.912Z,50
2023-05-19T16:34:59.035Z,50
2023-05-19T16:36:15.175Z,50
2023-05-19T16:37:31.307Z,50
2023-05-19T16:38:47.453Z,50
2023-05-19T16:40:03.582Z,50
2023-05-19T16:41:19.793Z,50
2023-05-19T16:42:35.933Z,50
2023-05-19T16:43:52.071Z,50
2023-05-19T16:45:08.207Z,50
2023-05-19T16:46:24.353Z,50
2023-05-19T16:47:40.479Z,50
2023-05-19T16:48:56.615Z,50
2023-05-19T16:50:12.748Z,50
2023-05-19T16:51:28.901Z,50
2023-05-19T16:52:45.020Z,50
2023-05-19T16:54:01.166Z,45
2023-05-19T16:55:17.287Z,45
2023-05-19T16:56:33.424Z,45
2023-05-19T16:57:49.584Z,45
2023-05-19T16:59:05.715Z,45
2023-05-19T17:00:21.982Z,45
2023-05-19T17:01:37.135Z,39
2023-05-19T17:02:53.284Z,39
2023-05-19T17:04:09.418Z,39
2023-05-19T17:05:25.559Z,39
2023-05-19T17:06:41.687Z,39
2023-05-19T17:07:57.830Z,33
2023-05-19T17:09:13.978Z,33
2023-05-19T17:10:30.112Z,33
2023-05-19T17:11:46.228Z,33
2023-05-19T17:13:02.372Z,33
2023-05-19T17:14:18.494Z,33
2023-05-19T17:15:34.654Z,28
2023-05-19T17:16:50.773Z,28
2023-05-19T17:18:06.910Z,28
2023-05-19T17:19:23.051Z,28
2023-05-19T17:20:39.183Z,28
2023-05-19T17:21:55.336Z,28
2023-05-19T17:23:11.473Z,28
2023-05-19T17:24:27.603Z,28
2023-05-19T17:25:43.722Z,22
2023-05-19T17:26:59.865Z,22
2023-05-19T17:28:16.019Z,22
2023-05-19T17:29:32.139Z,22
2023-05-19T17:30:48.283Z,22
2023-05-19T17:32:04.409Z,22
2023-05-19T17:33:20.550Z,22
2023-05-19T17:34:36.698Z,22
2023-05-19T17:35:52.825Z,22
2023-05-19T17:37:08.960Z,22
2023-05-19T17:38:25.091Z,22
2023-05-19T17:39:41.232Z,22
2023-05-19T17:40:57.382Z,22
2023-05-19T17:42:13.498Z,22
2023-05-19T17:43:29.631Z,22
2023-05-19T17:44:45.778Z,22
2023-05-19T17:46:01.910Z,22
2023-05-19T17:47:18.049Z,22
2023-05-19T17:48:34.244Z,22
2023-05-19T17:49:49.487Z,22
2023-05-19T17:51:04.681Z,22